<?xml version="1.0" encoding="UTF-8" standalone="no" ?>
<gpx xmlns="http://www.topografix.com/GPX/1/1" xmlns:xsi="http://www.w3.org/2001/XMLSchema-instance" xsi:schemaLocation="http://www.topografix.com/GPX/1/1 http://www.topografix.com/GPX/1/1/gpx.xsd" version="1.1" creator="VisuGPX - https://www.visugpx.com">
  <metadata>
    <name>Autour de Gurlhie</name>
    <desc><![CDATA[Une ballade avec pour thème un artiste dans la mouvance du facteur Cheval]]></desc>
  </metadata>
  <wpt lat="44.39373" lon="4.23658">
    <ele>177.99</ele>
    <name><![CDATA[0000101]]></name>
    <type><![CDATA[Point de départ]]></type>
  </wpt>
  <wpt lat="44.39337" lon="4.23622">
    <ele>174.85</ele>
    <name><![CDATA[0000102]]></name>
    <desc><![CDATA[<p><br /><h3>Nom: Segment: 1</h3><br />Heure de départ: 09:20 21 juin 2019<br/>Heure d'arrivée: 10:44 21 juin 2019<br/>Distance: 5km (01:23)<br/>Temps déplacement: 01:09<br/>Vitesse moyenne: 3,57 km/h<br/>Vitesse moyenne mouv.: 4,32 km/h<br/>Vitesse Max.: 7,69 km/h<br/>Altitude minimale: 153 m<br/>Altitude maximale: 189 m<br/>Vitesse de montée: 178,7 m/h<br/>Vitesse de descente: -197,9 m/h<br/>Gain d'altitude: 123 m<br/>Perte d'altitude: -126 m<br/>Temps de montée: 00:41<br/>Temps de descente: 00:38<br/></p>]]></desc>
    <type><![CDATA[Point d'arrivée]]></type>
  </wpt>
  <trk>
    <name><![CDATA[2019-06-21 09:20]]></name>
    <desc><![CDATA[<p>Heure de départ: 09:20 21 juin 2019<br/>Heure d'arrivée: 10:44 21 juin 2019<br/>Distance: 5 km (01:23)<br/>Temps déplacement: 01:09<br/>Vitesse moyenne: 3,57 km/h<br/>Vitesse moyenne mouv.: 4,32 km/h<br/>Vitesse Max.: 7,69 km/h<br/>Altitude minimale: 153 m<br/>Altitude maximale: 189 m<br/>Vitesse de montée: 155,8 m/h<br/>Vitesse de descente: -128,8 m/h<br/>Gain d'altitude: 97 m<br/>Perte d'altitude: -97 m<br/>Temps de montée: 00:37<br/>Temps de descente: 00:45<br/></p><hr align="center" width="480" style="height: 2px; width: 517px"/>]]></desc>
    <trkseg>
      <trkpt lat="44.39373" lon="4.23658">
        <ele>177.99</ele>
        <time>2019-06-21T07:20:58.000Z</time>
      </trkpt>
      <trkpt lat="44.39391" lon="4.2366">
        <ele>174.04</ele>
        <time>2019-06-21T07:21:13.000Z</time>
      </trkpt>
      <trkpt lat="44.39405" lon="4.23678">
        <ele>170.36</ele>
        <time>2019-06-21T07:21:39.000Z</time>
      </trkpt>
      <trkpt lat="44.39405" lon="4.23708">
        <ele>171.47</ele>
        <time>2019-06-21T07:22:10.000Z</time>
      </trkpt>
      <trkpt lat="44.39404" lon="4.23735">
        <ele>169.71</ele>
        <time>2019-06-21T07:22:32.000Z</time>
      </trkpt>
      <trkpt lat="44.39404" lon="4.2376">
        <ele>167.02</ele>
        <time>2019-06-21T07:22:46.000Z</time>
      </trkpt>
      <trkpt lat="44.39407" lon="4.23787">
        <ele>167.6</ele>
        <time>2019-06-21T07:23:02.000Z</time>
      </trkpt>
      <trkpt lat="44.39408" lon="4.23813">
        <ele>170.39</ele>
        <time>2019-06-21T07:23:16.000Z</time>
      </trkpt>
      <trkpt lat="44.39408" lon="4.2384">
        <ele>170.89</ele>
        <time>2019-06-21T07:23:30.000Z</time>
      </trkpt>
      <trkpt lat="44.39408" lon="4.23866">
        <ele>168.66</ele>
        <time>2019-06-21T07:23:44.000Z</time>
      </trkpt>
      <trkpt lat="44.39407" lon="4.23893">
        <ele>171.53</ele>
        <time>2019-06-21T07:23:58.000Z</time>
      </trkpt>
      <trkpt lat="44.3941" lon="4.2392">
        <ele>169.79</ele>
        <time>2019-06-21T07:24:14.000Z</time>
      </trkpt>
      <trkpt lat="44.39413" lon="4.23949">
        <ele>167.05</ele>
        <time>2019-06-21T07:24:30.000Z</time>
      </trkpt>
      <trkpt lat="44.39416" lon="4.23975">
        <ele>167.72</ele>
        <time>2019-06-21T07:25:01.000Z</time>
      </trkpt>
      <trkpt lat="44.39422" lon="4.23999">
        <ele>172.59</ele>
        <time>2019-06-21T07:25:31.000Z</time>
      </trkpt>
      <trkpt lat="44.39432" lon="4.24024">
        <ele>172.6</ele>
        <time>2019-06-21T07:25:45.000Z</time>
      </trkpt>
      <trkpt lat="44.39433" lon="4.2405">
        <ele>169.54</ele>
        <time>2019-06-21T07:25:55.000Z</time>
      </trkpt>
      <trkpt lat="44.39452" lon="4.2406">
        <ele>171.08</ele>
        <time>2019-06-21T07:26:47.000Z</time>
      </trkpt>
      <trkpt lat="44.39473" lon="4.2406">
        <ele>173.01</ele>
        <time>2019-06-21T07:26:59.000Z</time>
      </trkpt>
      <trkpt lat="44.39491" lon="4.24051">
        <ele>175.85</ele>
        <time>2019-06-21T07:27:09.000Z</time>
      </trkpt>
      <trkpt lat="44.39509" lon="4.24054">
        <ele>181.7</ele>
        <time>2019-06-21T07:27:19.000Z</time>
      </trkpt>
      <trkpt lat="44.39527" lon="4.2405">
        <ele>176.96</ele>
        <time>2019-06-21T07:27:31.000Z</time>
      </trkpt>
      <trkpt lat="44.39547" lon="4.24052">
        <ele>167.02</ele>
        <time>2019-06-21T07:28:07.000Z</time>
      </trkpt>
      <trkpt lat="44.39565" lon="4.24056">
        <ele>175.17</ele>
        <time>2019-06-21T07:28:17.000Z</time>
      </trkpt>
      <trkpt lat="44.39583" lon="4.24063">
        <ele>174.21</ele>
        <time>2019-06-21T07:28:29.000Z</time>
      </trkpt>
      <trkpt lat="44.39603" lon="4.24068">
        <ele>176.29</ele>
        <time>2019-06-21T07:28:45.000Z</time>
      </trkpt>
      <trkpt lat="44.39619" lon="4.24081">
        <ele>168</ele>
        <time>2019-06-21T07:29:07.000Z</time>
      </trkpt>
      <trkpt lat="44.39639" lon="4.24077">
        <ele>172.65</ele>
        <time>2019-06-21T07:29:49.000Z</time>
      </trkpt>
      <trkpt lat="44.3966" lon="4.24073">
        <ele>170.13</ele>
        <time>2019-06-21T07:30:29.000Z</time>
      </trkpt>
      <trkpt lat="44.39679" lon="4.24084">
        <ele>169.13</ele>
        <time>2019-06-21T07:30:43.000Z</time>
      </trkpt>
      <trkpt lat="44.39696" lon="4.24097">
        <ele>166.47</ele>
        <time>2019-06-21T07:30:59.000Z</time>
      </trkpt>
      <trkpt lat="44.39714" lon="4.2411">
        <ele>167.41</ele>
        <time>2019-06-21T07:31:13.000Z</time>
      </trkpt>
      <trkpt lat="44.39727" lon="4.24129">
        <ele>170.05</ele>
        <time>2019-06-21T07:31:43.000Z</time>
      </trkpt>
      <trkpt lat="44.39741" lon="4.24149">
        <ele>172.41</ele>
        <time>2019-06-21T07:31:55.000Z</time>
      </trkpt>
      <trkpt lat="44.39757" lon="4.24161">
        <ele>173.38</ele>
        <time>2019-06-21T07:32:09.000Z</time>
      </trkpt>
      <trkpt lat="44.39774" lon="4.24171">
        <ele>176.97</ele>
        <time>2019-06-21T07:32:23.000Z</time>
      </trkpt>
      <trkpt lat="44.39792" lon="4.24179">
        <ele>175.63</ele>
        <time>2019-06-21T07:32:37.000Z</time>
      </trkpt>
      <trkpt lat="44.39811" lon="4.24191">
        <ele>174.32</ele>
        <time>2019-06-21T07:32:55.000Z</time>
      </trkpt>
      <trkpt lat="44.39827" lon="4.24202">
        <ele>175.41</ele>
        <time>2019-06-21T07:33:27.000Z</time>
      </trkpt>
      <trkpt lat="44.39846" lon="4.24209">
        <ele>174.06</ele>
        <time>2019-06-21T07:33:41.000Z</time>
      </trkpt>
      <trkpt lat="44.39863" lon="4.2422">
        <ele>175.76</ele>
        <time>2019-06-21T07:33:57.000Z</time>
      </trkpt>
      <trkpt lat="44.3988" lon="4.2423">
        <ele>182.85</ele>
        <time>2019-06-21T07:34:25.000Z</time>
      </trkpt>
      <trkpt lat="44.39897" lon="4.2424">
        <ele>183.47</ele>
        <time>2019-06-21T07:34:41.000Z</time>
      </trkpt>
      <trkpt lat="44.39917" lon="4.24244">
        <ele>179.89</ele>
        <time>2019-06-21T07:35:11.000Z</time>
      </trkpt>
      <trkpt lat="44.39936" lon="4.24247">
        <ele>181.05</ele>
        <time>2019-06-21T07:35:25.000Z</time>
      </trkpt>
      <trkpt lat="44.39955" lon="4.24257">
        <ele>183.27</ele>
        <time>2019-06-21T07:35:43.000Z</time>
      </trkpt>
      <trkpt lat="44.39974" lon="4.24266">
        <ele>187.66</ele>
        <time>2019-06-21T07:36:07.000Z</time>
      </trkpt>
      <trkpt lat="44.39992" lon="4.24271">
        <ele>187.7</ele>
        <time>2019-06-21T07:36:23.000Z</time>
      </trkpt>
      <trkpt lat="44.40011" lon="4.24278">
        <ele>189.47</ele>
        <time>2019-06-21T07:36:39.000Z</time>
      </trkpt>
      <trkpt lat="44.40028" lon="4.24284">
        <ele>187.27</ele>
        <time>2019-06-21T07:36:59.000Z</time>
      </trkpt>
      <trkpt lat="44.40047" lon="4.2429">
        <ele>184.94</ele>
        <time>2019-06-21T07:37:19.000Z</time>
      </trkpt>
      <trkpt lat="44.40064" lon="4.24302">
        <ele>183.21</ele>
        <time>2019-06-21T07:37:37.000Z</time>
      </trkpt>
      <trkpt lat="44.40081" lon="4.24313">
        <ele>184.9</ele>
        <time>2019-06-21T07:37:55.000Z</time>
      </trkpt>
      <trkpt lat="44.40099" lon="4.24324">
        <ele>183.76</ele>
        <time>2019-06-21T07:38:39.000Z</time>
      </trkpt>
      <trkpt lat="44.40117" lon="4.24336">
        <ele>182.43</ele>
        <time>2019-06-21T07:39:03.000Z</time>
      </trkpt>
      <trkpt lat="44.40135" lon="4.24347">
        <ele>182.16</ele>
        <time>2019-06-21T07:39:21.000Z</time>
      </trkpt>
      <trkpt lat="44.40152" lon="4.24356">
        <ele>177.5</ele>
        <time>2019-06-21T07:39:39.000Z</time>
      </trkpt>
      <trkpt lat="44.40169" lon="4.24367">
        <ele>177.87</ele>
        <time>2019-06-21T07:40:05.000Z</time>
      </trkpt>
      <trkpt lat="44.40186" lon="4.2438">
        <ele>178.92</ele>
        <time>2019-06-21T07:40:25.000Z</time>
      </trkpt>
      <trkpt lat="44.40203" lon="4.2439">
        <ele>177.84</ele>
        <time>2019-06-21T07:40:47.000Z</time>
      </trkpt>
      <trkpt lat="44.4022" lon="4.24401">
        <ele>178.47</ele>
        <time>2019-06-21T07:41:06.000Z</time>
      </trkpt>
      <trkpt lat="44.40235" lon="4.24415">
        <ele>169.64</ele>
        <time>2019-06-21T07:41:20.000Z</time>
      </trkpt>
      <trkpt lat="44.40253" lon="4.24425">
        <ele>165.79</ele>
        <time>2019-06-21T07:41:36.000Z</time>
      </trkpt>
      <trkpt lat="44.40268" lon="4.24441">
        <ele>171.43</ele>
        <time>2019-06-21T07:42:02.000Z</time>
      </trkpt>
      <trkpt lat="44.40282" lon="4.24458">
        <ele>168.93</ele>
        <time>2019-06-21T07:42:24.000Z</time>
      </trkpt>
      <trkpt lat="44.40284" lon="4.24485">
        <ele>169.13</ele>
        <time>2019-06-21T07:44:04.000Z</time>
      </trkpt>
      <trkpt lat="44.40271" lon="4.24513">
        <ele>166.96</ele>
        <time>2019-06-21T07:44:34.000Z</time>
      </trkpt>
      <trkpt lat="44.40282" lon="4.24534">
        <ele>165.21</ele>
        <time>2019-06-21T07:44:58.000Z</time>
      </trkpt>
      <trkpt lat="44.40268" lon="4.24552">
        <ele>168.35</ele>
        <time>2019-06-21T07:45:26.000Z</time>
      </trkpt>
      <trkpt lat="44.40278" lon="4.24573">
        <ele>163.39</ele>
        <time>2019-06-21T07:45:48.000Z</time>
      </trkpt>
      <trkpt lat="44.40279" lon="4.24601">
        <ele>165.79</ele>
        <time>2019-06-21T07:46:08.000Z</time>
      </trkpt>
      <trkpt lat="44.40275" lon="4.24627">
        <ele>167.5</ele>
        <time>2019-06-21T07:46:28.000Z</time>
      </trkpt>
      <trkpt lat="44.40262" lon="4.24646">
        <ele>164.04</ele>
        <time>2019-06-21T07:46:46.000Z</time>
      </trkpt>
      <trkpt lat="44.40247" lon="4.24662">
        <ele>159.42</ele>
        <time>2019-06-21T07:47:08.000Z</time>
      </trkpt>
      <trkpt lat="44.40242" lon="4.24687">
        <ele>156.73</ele>
        <time>2019-06-21T07:47:32.000Z</time>
      </trkpt>
      <trkpt lat="44.40227" lon="4.24701">
        <ele>157.62</ele>
        <time>2019-06-21T07:47:50.000Z</time>
      </trkpt>
      <trkpt lat="44.40224" lon="4.24728">
        <ele>159.73</ele>
        <time>2019-06-21T07:48:14.000Z</time>
      </trkpt>
      <trkpt lat="44.40229" lon="4.24753">
        <ele>167.29</ele>
        <time>2019-06-21T07:48:34.000Z</time>
      </trkpt>
      <trkpt lat="44.40245" lon="4.24768">
        <ele>165.97</ele>
        <time>2019-06-21T07:49:12.000Z</time>
      </trkpt>
      <trkpt lat="44.40252" lon="4.24792">
        <ele>168.63</ele>
        <time>2019-06-21T07:49:30.000Z</time>
      </trkpt>
      <trkpt lat="44.40256" lon="4.24818">
        <ele>166.1</ele>
        <time>2019-06-21T07:49:48.000Z</time>
      </trkpt>
      <trkpt lat="44.40253" lon="4.24845">
        <ele>166.39</ele>
        <time>2019-06-21T07:50:06.000Z</time>
      </trkpt>
      <trkpt lat="44.40249" lon="4.2487">
        <ele>165.53</ele>
        <time>2019-06-21T07:50:34.000Z</time>
      </trkpt>
      <trkpt lat="44.40256" lon="4.24895">
        <ele>168.32</ele>
        <time>2019-06-21T07:50:56.000Z</time>
      </trkpt>
      <trkpt lat="44.40275" lon="4.24901">
        <ele>171.33</ele>
        <time>2019-06-21T07:51:18.000Z</time>
      </trkpt>
      <trkpt lat="44.40288" lon="4.24919">
        <ele>172.15</ele>
        <time>2019-06-21T07:51:38.000Z</time>
      </trkpt>
      <trkpt lat="44.40298" lon="4.24944">
        <ele>176.12</ele>
        <time>2019-06-21T07:52:06.000Z</time>
      </trkpt>
      <trkpt lat="44.40309" lon="4.24967">
        <ele>177.06</ele>
        <time>2019-06-21T07:52:38.000Z</time>
      </trkpt>
      <trkpt lat="44.40319" lon="4.24991">
        <ele>178.61</ele>
        <time>2019-06-21T07:52:54.000Z</time>
      </trkpt>
      <trkpt lat="44.40331" lon="4.25013">
        <ele>177.41</ele>
        <time>2019-06-21T07:53:10.000Z</time>
      </trkpt>
      <trkpt lat="44.40331" lon="4.25042">
        <ele>174.79</ele>
        <time>2019-06-21T07:53:28.000Z</time>
      </trkpt>
      <trkpt lat="44.40322" lon="4.25066">
        <ele>173.34</ele>
        <time>2019-06-21T07:53:44.000Z</time>
      </trkpt>
      <trkpt lat="44.40315" lon="4.25093">
        <ele>173.41</ele>
        <time>2019-06-21T07:54:00.000Z</time>
      </trkpt>
      <trkpt lat="44.40318" lon="4.2512">
        <ele>173.76</ele>
        <time>2019-06-21T07:54:16.000Z</time>
      </trkpt>
      <trkpt lat="44.4033" lon="4.25143">
        <ele>176.14</ele>
        <time>2019-06-21T07:55:06.000Z</time>
      </trkpt>
      <trkpt lat="44.40329" lon="4.25171">
        <ele>173.66</ele>
        <time>2019-06-21T07:55:44.000Z</time>
      </trkpt>
      <trkpt lat="44.40316" lon="4.25191">
        <ele>177.98</ele>
        <time>2019-06-21T07:55:56.000Z</time>
      </trkpt>
      <trkpt lat="44.40305" lon="4.25214">
        <ele>177.63</ele>
        <time>2019-06-21T07:56:16.000Z</time>
      </trkpt>
      <trkpt lat="44.40293" lon="4.25235">
        <ele>173.66</ele>
        <time>2019-06-21T07:56:32.000Z</time>
      </trkpt>
      <trkpt lat="44.40285" lon="4.2526">
        <ele>176.13</ele>
        <time>2019-06-21T07:56:48.000Z</time>
      </trkpt>
      <trkpt lat="44.40297" lon="4.25281">
        <ele>178.25</ele>
        <time>2019-06-21T07:57:02.000Z</time>
      </trkpt>
      <trkpt lat="44.40314" lon="4.25294">
        <ele>175.59</ele>
        <time>2019-06-21T07:57:32.000Z</time>
      </trkpt>
      <trkpt lat="44.40325" lon="4.25316">
        <ele>175.55</ele>
        <time>2019-06-21T07:58:16.000Z</time>
      </trkpt>
      <trkpt lat="44.40326" lon="4.25342">
        <ele>173.13</ele>
        <time>2019-06-21T07:58:54.000Z</time>
      </trkpt>
      <trkpt lat="44.40315" lon="4.25364">
        <ele>174.83</ele>
        <time>2019-06-21T07:59:22.000Z</time>
      </trkpt>
      <trkpt lat="44.40323" lon="4.25391">
        <ele>175.99</ele>
        <time>2019-06-21T07:59:36.000Z</time>
      </trkpt>
      <trkpt lat="44.4032" lon="4.25419">
        <ele>175.51</ele>
        <time>2019-06-21T07:59:58.000Z</time>
      </trkpt>
      <trkpt lat="44.40304" lon="4.25436">
        <ele>170.57</ele>
        <time>2019-06-21T08:00:14.000Z</time>
      </trkpt>
      <trkpt lat="44.4029" lon="4.25456">
        <ele>170.24</ele>
        <time>2019-06-21T08:00:48.000Z</time>
      </trkpt>
      <trkpt lat="44.40273" lon="4.25471">
        <ele>171.46</ele>
        <time>2019-06-21T08:01:14.000Z</time>
      </trkpt>
      <trkpt lat="44.40255" lon="4.25485">
        <ele>168</ele>
        <time>2019-06-21T08:01:28.000Z</time>
      </trkpt>
      <trkpt lat="44.4024" lon="4.25505">
        <ele>165.96</ele>
        <time>2019-06-21T08:01:42.000Z</time>
      </trkpt>
      <trkpt lat="44.40225" lon="4.25521">
        <ele>170.72</ele>
        <time>2019-06-21T08:01:58.000Z</time>
      </trkpt>
      <trkpt lat="44.4021" lon="4.25538">
        <ele>169.17</ele>
        <time>2019-06-21T08:02:12.000Z</time>
      </trkpt>
      <trkpt lat="44.40196" lon="4.25557">
        <ele>167.63</ele>
        <time>2019-06-21T08:02:24.000Z</time>
      </trkpt>
      <trkpt lat="44.40178" lon="4.25562">
        <ele>169.05</ele>
        <time>2019-06-21T08:02:36.000Z</time>
      </trkpt>
      <trkpt lat="44.40159" lon="4.25566">
        <ele>168.96</ele>
        <time>2019-06-21T08:02:50.000Z</time>
      </trkpt>
      <trkpt lat="44.4014" lon="4.25572">
        <ele>170.65</ele>
        <time>2019-06-21T08:03:04.000Z</time>
      </trkpt>
      <trkpt lat="44.40121" lon="4.25576">
        <ele>162.15</ele>
        <time>2019-06-21T08:03:20.000Z</time>
      </trkpt>
      <trkpt lat="44.40107" lon="4.2556">
        <ele>161.71</ele>
        <time>2019-06-21T08:03:32.000Z</time>
      </trkpt>
      <trkpt lat="44.4009" lon="4.25545">
        <ele>162.78</ele>
        <time>2019-06-21T08:03:46.000Z</time>
      </trkpt>
      <trkpt lat="44.40076" lon="4.25527">
        <ele>162.24</ele>
        <time>2019-06-21T08:04:06.000Z</time>
      </trkpt>
      <trkpt lat="44.40063" lon="4.25503">
        <ele>161.04</ele>
        <time>2019-06-21T08:04:22.000Z</time>
      </trkpt>
      <trkpt lat="44.40051" lon="4.25479">
        <ele>162.22</ele>
        <time>2019-06-21T08:04:38.000Z</time>
      </trkpt>
      <trkpt lat="44.40036" lon="4.25465">
        <ele>162.21</ele>
        <time>2019-06-21T08:04:52.000Z</time>
      </trkpt>
      <trkpt lat="44.40017" lon="4.25454">
        <ele>160.99</ele>
        <time>2019-06-21T08:05:06.000Z</time>
      </trkpt>
      <trkpt lat="44.39999" lon="4.25446">
        <ele>159.81</ele>
        <time>2019-06-21T08:05:22.000Z</time>
      </trkpt>
      <trkpt lat="44.3998" lon="4.25435">
        <ele>158.57</ele>
        <time>2019-06-21T08:05:38.000Z</time>
      </trkpt>
      <trkpt lat="44.39962" lon="4.25427">
        <ele>162.78</ele>
        <time>2019-06-21T08:05:56.000Z</time>
      </trkpt>
      <trkpt lat="44.39947" lon="4.25414">
        <ele>161.63</ele>
        <time>2019-06-21T08:06:10.000Z</time>
      </trkpt>
      <trkpt lat="44.39936" lon="4.25394">
        <ele>159.04</ele>
        <time>2019-06-21T08:06:28.000Z</time>
      </trkpt>
      <trkpt lat="44.39922" lon="4.25373">
        <ele>156.52</ele>
        <time>2019-06-21T08:06:48.000Z</time>
      </trkpt>
      <trkpt lat="44.39907" lon="4.25356">
        <ele>158.22</ele>
        <time>2019-06-21T08:07:04.000Z</time>
      </trkpt>
      <trkpt lat="44.39894" lon="4.25337">
        <ele>157.78</ele>
        <time>2019-06-21T08:07:22.000Z</time>
      </trkpt>
      <trkpt lat="44.39881" lon="4.25319">
        <ele>162.32</ele>
        <time>2019-06-21T08:07:38.000Z</time>
      </trkpt>
      <trkpt lat="44.39867" lon="4.25299">
        <ele>158.9</ele>
        <time>2019-06-21T08:08:04.000Z</time>
      </trkpt>
      <trkpt lat="44.39854" lon="4.25281">
        <ele>158.86</ele>
        <time>2019-06-21T08:08:22.000Z</time>
      </trkpt>
      <trkpt lat="44.3984" lon="4.25259">
        <ele>159.32</ele>
        <time>2019-06-21T08:08:40.000Z</time>
      </trkpt>
      <trkpt lat="44.39828" lon="4.25238">
        <ele>158.7</ele>
        <time>2019-06-21T08:08:58.000Z</time>
      </trkpt>
      <trkpt lat="44.39815" lon="4.25217">
        <ele>161.74</ele>
        <time>2019-06-21T08:09:14.000Z</time>
      </trkpt>
      <trkpt lat="44.398" lon="4.25201">
        <ele>159.18</ele>
        <time>2019-06-21T08:09:28.000Z</time>
      </trkpt>
      <trkpt lat="44.39784" lon="4.25187">
        <ele>163.26</ele>
        <time>2019-06-21T08:09:48.000Z</time>
      </trkpt>
      <trkpt lat="44.39772" lon="4.25169">
        <ele>159.96</ele>
        <time>2019-06-21T08:10:02.000Z</time>
      </trkpt>
      <trkpt lat="44.39759" lon="4.2515">
        <ele>161.58</ele>
        <time>2019-06-21T08:10:22.000Z</time>
      </trkpt>
      <trkpt lat="44.39744" lon="4.25134">
        <ele>161.99</ele>
        <time>2019-06-21T08:11:18.000Z</time>
      </trkpt>
      <trkpt lat="44.39732" lon="4.25114">
        <ele>156.23</ele>
        <time>2019-06-21T08:11:32.000Z</time>
      </trkpt>
      <trkpt lat="44.39722" lon="4.2509">
        <ele>158.73</ele>
        <time>2019-06-21T08:12:24.000Z</time>
      </trkpt>
      <trkpt lat="44.3971" lon="4.25071">
        <ele>159.6</ele>
        <time>2019-06-21T08:12:40.000Z</time>
      </trkpt>
      <trkpt lat="44.39698" lon="4.25052">
        <ele>159.9</ele>
        <time>2019-06-21T08:13:02.000Z</time>
      </trkpt>
      <trkpt lat="44.39683" lon="4.25036">
        <ele>156.95</ele>
        <time>2019-06-21T08:13:18.000Z</time>
      </trkpt>
      <trkpt lat="44.39669" lon="4.25018">
        <ele>158.69</ele>
        <time>2019-06-21T08:13:40.000Z</time>
      </trkpt>
      <trkpt lat="44.39654" lon="4.25">
        <ele>160.84</ele>
        <time>2019-06-21T08:14:06.000Z</time>
      </trkpt>
      <trkpt lat="44.39639" lon="4.24983">
        <ele>161.94</ele>
        <time>2019-06-21T08:14:22.000Z</time>
      </trkpt>
      <trkpt lat="44.39624" lon="4.24965">
        <ele>159.58</ele>
        <time>2019-06-21T08:14:42.000Z</time>
      </trkpt>
      <trkpt lat="44.39612" lon="4.24944">
        <ele>160.49</ele>
        <time>2019-06-21T08:15:00.000Z</time>
      </trkpt>
      <trkpt lat="44.39601" lon="4.24921">
        <ele>159.23</ele>
        <time>2019-06-21T08:15:20.000Z</time>
      </trkpt>
      <trkpt lat="44.39587" lon="4.24903">
        <ele>163.81</ele>
        <time>2019-06-21T08:15:58.000Z</time>
      </trkpt>
      <trkpt lat="44.39574" lon="4.24887">
        <ele>160.77</ele>
        <time>2019-06-21T08:16:12.000Z</time>
      </trkpt>
      <trkpt lat="44.39562" lon="4.24865">
        <ele>161.62</ele>
        <time>2019-06-21T08:16:34.000Z</time>
      </trkpt>
      <trkpt lat="44.39552" lon="4.2484">
        <ele>156.36</ele>
        <time>2019-06-21T08:16:54.000Z</time>
      </trkpt>
      <trkpt lat="44.39542" lon="4.24816">
        <ele>157.64</ele>
        <time>2019-06-21T08:17:12.000Z</time>
      </trkpt>
      <trkpt lat="44.39534" lon="4.24791">
        <ele>158.29</ele>
        <time>2019-06-21T08:17:30.000Z</time>
      </trkpt>
      <trkpt lat="44.39526" lon="4.24768">
        <ele>158.19</ele>
        <time>2019-06-21T08:17:48.000Z</time>
      </trkpt>
      <trkpt lat="44.39522" lon="4.2474">
        <ele>160.25</ele>
        <time>2019-06-21T08:18:06.000Z</time>
      </trkpt>
      <trkpt lat="44.39519" lon="4.24715">
        <ele>160.02</ele>
        <time>2019-06-21T08:18:22.000Z</time>
      </trkpt>
      <trkpt lat="44.39517" lon="4.24688">
        <ele>163.25</ele>
        <time>2019-06-21T08:18:40.000Z</time>
      </trkpt>
      <trkpt lat="44.39512" lon="4.24663">
        <ele>159.94</ele>
        <time>2019-06-21T08:18:56.000Z</time>
      </trkpt>
      <trkpt lat="44.3951" lon="4.24636">
        <ele>160.64</ele>
        <time>2019-06-21T08:19:12.000Z</time>
      </trkpt>
      <trkpt lat="44.39509" lon="4.2461">
        <ele>157.17</ele>
        <time>2019-06-21T08:19:46.000Z</time>
      </trkpt>
      <trkpt lat="44.39509" lon="4.24583">
        <ele>158.16</ele>
        <time>2019-06-21T08:20:04.000Z</time>
      </trkpt>
      <trkpt lat="44.39508" lon="4.24556">
        <ele>162.45</ele>
        <time>2019-06-21T08:20:20.000Z</time>
      </trkpt>
      <trkpt lat="44.39502" lon="4.24531">
        <ele>162.68</ele>
        <time>2019-06-21T08:20:40.000Z</time>
      </trkpt>
      <trkpt lat="44.39497" lon="4.24505">
        <ele>157.93</ele>
        <time>2019-06-21T08:21:04.000Z</time>
      </trkpt>
      <trkpt lat="44.39488" lon="4.24481">
        <ele>158.31</ele>
        <time>2019-06-21T08:21:20.000Z</time>
      </trkpt>
      <trkpt lat="44.3947" lon="4.2449">
        <ele>153.75</ele>
        <time>2019-06-21T08:21:40.000Z</time>
      </trkpt>
      <trkpt lat="44.39453" lon="4.24499">
        <ele>153.44</ele>
        <time>2019-06-21T08:22:00.000Z</time>
      </trkpt>
      <trkpt lat="44.39437" lon="4.24512">
        <ele>155.5</ele>
        <time>2019-06-21T08:22:16.000Z</time>
      </trkpt>
      <trkpt lat="44.3942" lon="4.24521">
        <ele>154.3</ele>
        <time>2019-06-21T08:22:32.000Z</time>
      </trkpt>
      <trkpt lat="44.39403" lon="4.2451">
        <ele>156.05</ele>
        <time>2019-06-21T08:22:54.000Z</time>
      </trkpt>
      <trkpt lat="44.39387" lon="4.24497">
        <ele>159.4</ele>
        <time>2019-06-21T08:23:10.000Z</time>
      </trkpt>
      <trkpt lat="44.3937" lon="4.24486">
        <ele>158.38</ele>
        <time>2019-06-21T08:23:42.000Z</time>
      </trkpt>
      <trkpt lat="44.39358" lon="4.24465">
        <ele>157.65</ele>
        <time>2019-06-21T08:23:58.000Z</time>
      </trkpt>
      <trkpt lat="44.3935" lon="4.24441">
        <ele>160.23</ele>
        <time>2019-06-21T08:24:22.000Z</time>
      </trkpt>
      <trkpt lat="44.39342" lon="4.24416">
        <ele>163.4</ele>
        <time>2019-06-21T08:24:38.000Z</time>
      </trkpt>
      <trkpt lat="44.39334" lon="4.24393">
        <ele>163.54</ele>
        <time>2019-06-21T08:24:54.000Z</time>
      </trkpt>
      <trkpt lat="44.39324" lon="4.24368">
        <ele>164.02</ele>
        <time>2019-06-21T08:25:12.000Z</time>
      </trkpt>
      <trkpt lat="44.39315" lon="4.24346">
        <ele>161.14</ele>
        <time>2019-06-21T08:25:28.000Z</time>
      </trkpt>
      <trkpt lat="44.3931" lon="4.24321">
        <ele>160.21</ele>
        <time>2019-06-21T08:25:54.000Z</time>
      </trkpt>
      <trkpt lat="44.39304" lon="4.24297">
        <ele>160.3</ele>
        <time>2019-06-21T08:26:08.000Z</time>
      </trkpt>
      <trkpt lat="44.39301" lon="4.24272">
        <ele>159.94</ele>
        <time>2019-06-21T08:26:22.000Z</time>
      </trkpt>
      <trkpt lat="44.39298" lon="4.24247">
        <ele>157.82</ele>
        <time>2019-06-21T08:26:38.000Z</time>
      </trkpt>
      <trkpt lat="44.39294" lon="4.2422">
        <ele>159.06</ele>
        <time>2019-06-21T08:26:54.000Z</time>
      </trkpt>
      <trkpt lat="44.3929" lon="4.24192">
        <ele>153.9</ele>
        <time>2019-06-21T08:27:30.000Z</time>
      </trkpt>
      <trkpt lat="44.39291" lon="4.24167">
        <ele>162.55</ele>
        <time>2019-06-21T08:27:40.000Z</time>
      </trkpt>
      <trkpt lat="44.39281" lon="4.24139">
        <ele>153.42</ele>
        <time>2019-06-21T08:27:58.000Z</time>
      </trkpt>
      <trkpt lat="44.39281" lon="4.24111">
        <ele>157.14</ele>
        <time>2019-06-21T08:28:16.000Z</time>
      </trkpt>
      <trkpt lat="44.3928" lon="4.24084">
        <ele>161.74</ele>
        <time>2019-06-21T08:28:42.000Z</time>
      </trkpt>
      <trkpt lat="44.39273" lon="4.2406">
        <ele>159</ele>
        <time>2019-06-21T08:28:58.000Z</time>
      </trkpt>
      <trkpt lat="44.39266" lon="4.24034">
        <ele>160.89</ele>
        <time>2019-06-21T08:29:14.000Z</time>
      </trkpt>
      <trkpt lat="44.3926" lon="4.2401">
        <ele>157.32</ele>
        <time>2019-06-21T08:29:30.000Z</time>
      </trkpt>
      <trkpt lat="44.39253" lon="4.23985">
        <ele>158.53</ele>
        <time>2019-06-21T08:29:46.000Z</time>
      </trkpt>
      <trkpt lat="44.39249" lon="4.23957">
        <ele>161.64</ele>
        <time>2019-06-21T08:30:02.000Z</time>
      </trkpt>
      <trkpt lat="44.39246" lon="4.23932">
        <ele>163.9</ele>
        <time>2019-06-21T08:30:16.000Z</time>
      </trkpt>
      <trkpt lat="44.39247" lon="4.23906">
        <ele>162.87</ele>
        <time>2019-06-21T08:30:32.000Z</time>
      </trkpt>
      <trkpt lat="44.39247" lon="4.23879">
        <ele>165.49</ele>
        <time>2019-06-21T08:30:48.000Z</time>
      </trkpt>
      <trkpt lat="44.39246" lon="4.23851">
        <ele>166.92</ele>
        <time>2019-06-21T08:31:04.000Z</time>
      </trkpt>
      <trkpt lat="44.3925" lon="4.23809">
        <ele>164.05</ele>
        <time>2019-06-21T08:31:30.000Z</time>
      </trkpt>
      <trkpt lat="44.39249" lon="4.23783">
        <ele>163.16</ele>
        <time>2019-06-21T08:31:44.000Z</time>
      </trkpt>
      <trkpt lat="44.39247" lon="4.23758">
        <ele>166.7</ele>
        <time>2019-06-21T08:32:10.000Z</time>
      </trkpt>
      <trkpt lat="44.39247" lon="4.23729">
        <ele>167.06</ele>
        <time>2019-06-21T08:32:22.000Z</time>
      </trkpt>
      <trkpt lat="44.39235" lon="4.2371">
        <ele>164.02</ele>
        <time>2019-06-21T08:32:42.000Z</time>
      </trkpt>
      <trkpt lat="44.39221" lon="4.23691">
        <ele>166.96</ele>
        <time>2019-06-21T08:32:59.000Z</time>
      </trkpt>
      <trkpt lat="44.39203" lon="4.23688">
        <ele>156.39</ele>
        <time>2019-06-21T08:33:53.000Z</time>
      </trkpt>
      <trkpt lat="44.39197" lon="4.23663">
        <ele>158.88</ele>
        <time>2019-06-21T08:34:53.000Z</time>
      </trkpt>
      <trkpt lat="44.39203" lon="4.23636">
        <ele>158.91</ele>
        <time>2019-06-21T08:35:13.000Z</time>
      </trkpt>
      <trkpt lat="44.39199" lon="4.23611">
        <ele>156.7</ele>
        <time>2019-06-21T08:35:31.000Z</time>
      </trkpt>
      <trkpt lat="44.39203" lon="4.23582">
        <ele>164.58</ele>
        <time>2019-06-21T08:36:49.000Z</time>
      </trkpt>
      <trkpt lat="44.39207" lon="4.23557">
        <ele>164.19</ele>
        <time>2019-06-21T08:37:03.000Z</time>
      </trkpt>
      <trkpt lat="44.39208" lon="4.2353">
        <ele>160.73</ele>
        <time>2019-06-21T08:37:23.000Z</time>
      </trkpt>
      <trkpt lat="44.39211" lon="4.23504">
        <ele>162.35</ele>
        <time>2019-06-21T08:37:43.000Z</time>
      </trkpt>
      <trkpt lat="44.39209" lon="4.23478">
        <ele>162.89</ele>
        <time>2019-06-21T08:38:03.000Z</time>
      </trkpt>
      <trkpt lat="44.39213" lon="4.2345">
        <ele>165.66</ele>
        <time>2019-06-21T08:38:55.000Z</time>
      </trkpt>
      <trkpt lat="44.39224" lon="4.23472">
        <ele>172.11</ele>
        <time>2019-06-21T08:41:07.000Z</time>
      </trkpt>
      <trkpt lat="44.39226" lon="4.235">
        <ele>169.3</ele>
        <time>2019-06-21T08:41:27.000Z</time>
      </trkpt>
      <trkpt lat="44.3923" lon="4.23525">
        <ele>168.18</ele>
        <time>2019-06-21T08:41:43.000Z</time>
      </trkpt>
      <trkpt lat="44.39238" lon="4.23548">
        <ele>168.3</ele>
        <time>2019-06-21T08:42:01.000Z</time>
      </trkpt>
      <trkpt lat="44.39244" lon="4.23575">
        <ele>165.74</ele>
        <time>2019-06-21T08:42:19.000Z</time>
      </trkpt>
      <trkpt lat="44.39247" lon="4.236">
        <ele>164.94</ele>
        <time>2019-06-21T08:42:35.000Z</time>
      </trkpt>
      <trkpt lat="44.39263" lon="4.23611">
        <ele>169.08</ele>
        <time>2019-06-21T08:43:11.000Z</time>
      </trkpt>
      <trkpt lat="44.39282" lon="4.23605">
        <ele>171.81</ele>
        <time>2019-06-21T08:43:33.000Z</time>
      </trkpt>
      <trkpt lat="44.393" lon="4.2361">
        <ele>171.94</ele>
        <time>2019-06-21T08:43:57.000Z</time>
      </trkpt>
      <trkpt lat="44.39319" lon="4.23613">
        <ele>175.12</ele>
        <time>2019-06-21T08:44:17.000Z</time>
      </trkpt>
      <trkpt lat="44.39337" lon="4.23622">
        <ele>174.85</ele>
        <time>2019-06-21T08:44:37.000Z</time>
      </trkpt>
    </trkseg>
  </trk>
</gpx>